sensor_id;sensor_type;location;lat;lon;timestamp;temperature;humidity
60287;DHT22;46141;52.382;5.270;2023-05-10T00:00:44;20.00;82.20
60287;DHT22;46141;52.382;5.270;2023-05-10T00:03:09;20.10;82.10
60287;DHT22;46141;52.382;5.270;2023-05-10T00:05:35;20.00;82.20
60287;DHT22;46141;52.382;5.270;2023-05-10T00:08:01;20.10;82.20
60287;DHT22;46141;52.382;5.270;2023-05-10T00:10:26;20.00;82.20
60287;DHT22;46141;52.382;5.270;2023-05-10T00:12:52;20.00;82.30
60287;DHT22;46141;52.382;5.270;2023-05-10T00:15:18;20.00;82.20
60287;DHT22;46141;52.382;5.270;2023-05-10T00:17:43;20.00;82.30
60287;DHT22;46141;52.382;5.270;2023-05-10T00:20:09;20.00;82.40
60287;DHT22;46141;52.382;5.270;2023-05-10T00:22:35;20.00;82.40
60287;DHT22;46141;52.382;5.270;2023-05-10T00:25:01;20.00;82.50
60287;DHT22;46141;52.382;5.270;2023-05-10T00:27:26;20.00;83.00
60287;DHT22;46141;52.382;5.270;2023-05-10T00:29:52;20.00;82.40
60287;DHT22;46141;52.382;5.270;2023-05-10T00:32:18;19.90;82.40
60287;DHT22;46141;52.382;5.270;2023-05-10T00:34:43;19.90;82.40
60287;DHT22;46141;52.382;5.270;2023-05-10T00:37:09;19.90;82.40
60287;DHT22;46141;52.382;5.270;2023-05-10T00:39:35;20.00;82.50
60287;DHT22;46141;52.382;5.270;2023-05-10T00:42:00;20.00;82.50
60287;DHT22;46141;52.382;5.270;2023-05-10T00:44:26;19.90;82.50
60287;DHT22;46141;52.382;5.270;2023-05-10T00:46:53;19.90;82.60
60287;DHT22;46141;52.382;5.270;2023-05-10T00:49:20;19.90;82.50
60287;DHT22;46141;52.382;5.270;2023-05-10T00:51:46;19.90;82.50
60287;DHT22;46141;52.382;5.270;2023-05-10T00:54:14;19.90;82.60
60287;DHT22;46141;52.382;5.270;2023-05-10T00:56:40;19.90;82.60
60287;DHT22;46141;52.382;5.270;2023-05-10T00:59:08;19.90;82.50
60287;DHT22;46141;52.382;5.270;2023-05-10T01:01:35;19.90;82.60
60287;DHT22;46141;52.382;5.270;2023-05-10T01:04:01;19.90;82.70
60287;DHT22;46141;52.382;5.270;2023-05-10T01:06:28;19.90;82.60
60287;DHT22;46141;52.382;5.270;2023-05-10T01:08:54;19.90;82.60
60287;DHT22;46141;52.382;5.270;2023-05-10T01:11:21;19.90;82.60
60287;DHT22;46141;52.382;5.270;2023-05-10T01:13:54;19.90;82.70
60287;DHT22;46141;52.382;5.270;2023-05-10T01:16:21;19.90;82.70
60287;DHT22;46141;52.382;5.270;2023-05-10T01:18:48;19.90;83.00
60287;DHT22;46141;52.382;5.270;2023-05-10T01:21:26;19.90;83.40
60287;DHT22;46141;52.382;5.270;2023-05-10T01:35:07;19.90;82.60
60287;DHT22;46141;52.382;5.270;2023-05-10T01:38:02;19.90;82.80
60287;DHT22;46141;52.382;5.270;2023-05-10T01:40:42;19.90;82.80
60287;DHT22;46141;52.382;5.270;2023-05-10T01:43:21;19.90;82.80
60287;DHT22;46141;52.382;5.270;2023-05-10T01:46:05;19.80;82.80
60287;DHT22;46141;52.382;5.270;2023-05-10T01:48:41;19.90;82.80
60287;DHT22;46141;52.382;5.270;2023-05-10T01:51:15;19.80;82.80
60287;DHT22;46141;52.382;5.270;2023-05-10T01:53:44;19.80;82.80
60287;DHT22;46141;52.382;5.270;2023-05-10T01:56:13;19.90;82.80
60287;DHT22;46141;52.382;5.270;2023-05-10T01:58:43;19.80;82.80
60287;DHT22;46141;52.382;5.270;2023-05-10T02:01:12;19.90;82.90
60287;DHT22;46141;52.382;5.270;2023-05-10T02:03:41;19.80;82.70
60287;DHT22;46141;52.382;5.270;2023-05-10T02:06:10;19.90;82.80
60287;DHT22;46141;52.382;5.270;2023-05-10T02:08:40;19.90;82.80
60287;DHT22;46141;52.382;5.270;2023-05-10T02:11:07;19.80;82.80
60287;DHT22;46141;52.382;5.270;2023-05-10T02:13:37;19.80;82.80
60287;DHT22;46141;52.382;5.270;2023-05-10T02:16:05;19.80;82.90
60287;DHT22;46141;52.382;5.270;2023-05-10T02:18:33;19.80;82.90
60287;DHT22;46141;52.382;5.270;2023-05-10T02:21:02;19.80;82.90
60287;DHT22;46141;52.382;5.270;2023-05-10T02:23:29;19.80;82.90
60287;DHT22;46141;52.382;5.270;2023-05-10T02:25:57;19.80;83.00
60287;DHT22;46141;52.382;5.270;2023-05-10T02:28:26;19.80;83.00
60287;DHT22;46141;52.382;5.270;2023-05-10T02:30:54;19.80;82.90
60287;DHT22;46141;52.382;5.270;2023-05-10T02:33:22;19.70;82.90
60287;DHT22;46141;52.382;5.270;2023-05-10T02:35:50;19.80;83.00
60287;DHT22;46141;52.382;5.270;2023-05-10T02:38:19;19.80;83.00
60287;DHT22;46141;52.382;5.270;2023-05-10T02:40:47;19.80;82.80
60287;DHT22;46141;52.382;5.270;2023-05-10T02:43:16;19.80;82.90
60287;DHT22;46141;52.382;5.270;2023-05-10T02:45:44;19.80;82.90
60287;DHT22;46141;52.382;5.270;2023-05-10T02:48:11;19.80;82.90
60287;DHT22;46141;52.382;5.270;2023-05-10T02:50:44;19.80;82.90
60287;DHT22;46141;52.382;5.270;2023-05-10T02:53:15;19.80;82.90
60287;DHT22;46141;52.382;5.270;2023-05-10T02:55:45;19.80;83.00
60287;DHT22;46141;52.382;5.270;2023-05-10T02:58:13;19.80;83.00
60287;DHT22;46141;52.382;5.270;2023-05-10T03:00:39;19.80;83.00
60287;DHT22;46141;52.382;5.270;2023-05-10T03:03:05;19.70;83.00
60287;DHT22;46141;52.382;5.270;2023-05-10T03:05:30;19.70;83.00
60287;DHT22;46141;52.382;5.270;2023-05-10T03:07:56;19.70;82.90
60287;DHT22;46141;52.382;5.270;2023-05-10T03:10:27;19.70;82.90
60287;DHT22;46141;52.382;5.270;2023-05-10T03:13:16;19.70;83.00
60287;DHT22;46141;52.382;5.270;2023-05-10T03:16:08;19.70;82.90
60287;DHT22;46141;52.382;5.270;2023-05-10T03:18:56;19.70;82.70
60287;DHT22;46141;52.382;5.270;2023-05-10T03:21:29;19.70;82.70
60287;DHT22;46141;52.382;5.270;2023-05-10T03:24:09;19.70;82.60
60287;DHT22;46141;52.382;5.270;2023-05-10T03:26:38;19.70;82.60
60287;DHT22;46141;52.382;5.270;2023-05-10T03:29:06;19.70;82.70
60287;DHT22;46141;52.382;5.270;2023-05-10T03:31:33;19.60;82.70
60287;DHT22;46141;52.382;5.270;2023-05-10T03:33:59;19.70;82.70
60287;DHT22;46141;52.382;5.270;2023-05-10T03:36:24;19.70;82.50
60287;DHT22;46141;52.382;5.270;2023-05-10T03:38:50;19.70;82.60
60287;DHT22;46141;52.382;5.270;2023-05-10T03:41:16;19.70;82.50
60287;DHT22;46141;52.382;5.270;2023-05-10T03:43:41;19.70;82.50
60287;DHT22;46141;52.382;5.270;2023-05-10T03:46:07;19.60;82.50
60287;DHT22;46141;52.382;5.270;2023-05-10T03:48:33;19.60;82.50
60287;DHT22;46141;52.382;5.270;2023-05-10T03:50:59;19.70;82.40
60287;DHT22;46141;52.382;5.270;2023-05-10T03:53:25;19.60;82.30
60287;DHT22;46141;52.382;5.270;2023-05-10T03:55:50;19.60;82.30
60287;DHT22;46141;52.382;5.270;2023-05-10T03:58:16;19.60;82.20
60287;DHT22;46141;52.382;5.270;2023-05-10T04:00:42;19.60;82.40
60287;DHT22;46141;52.382;5.270;2023-05-10T04:03:11;19.60;82.30
60287;DHT22;46141;52.382;5.270;2023-05-10T04:05:36;19.60;82.20
60287;DHT22;46141;52.382;5.270;2023-05-10T04:08:03;19.60;82.30
60287;DHT22;46141;52.382;5.270;2023-05-10T04:10:28;19.60;82.30
60287;DHT22;46141;52.382;5.270;2023-05-10T04:12:54;19.50;82.20
60287;DHT22;46141;52.382;5.270;2023-05-10T04:15:20;19.60;82.30
60287;DHT22;46141;52.382;5.270;2023-05-10T04:17:45;19.60;82.20
60287;DHT22;46141;52.382;5.270;2023-05-10T04:20:11;19.50;82.10
60287;DHT22;46141;52.382;5.270;2023-05-10T04:22:37;19.50;82.20
60287;DHT22;46141;52.382;5.270;2023-05-10T04:25:03;19.50;82.20
60287;DHT22;46141;52.382;5.270;2023-05-10T04:27:30;19.50;82.20
60287;DHT22;46141;52.382;5.270;2023-05-10T04:29:56;19.50;82.10
60287;DHT22;46141;52.382;5.270;2023-05-10T04:32:22;19.60;82.00
60287;DHT22;46141;52.382;5.270;2023-05-10T04:34:47;19.50;82.00
60287;DHT22;46141;52.382;5.270;2023-05-10T04:37:13;19.50;82.20
60287;DHT22;46141;52.382;5.270;2023-05-10T04:39:39;19.50;82.10
60287;DHT22;46141;52.382;5.270;2023-05-10T04:42:04;19.50;82.00
60287;DHT22;46141;52.382;5.270;2023-05-10T04:44:31;19.50;82.00
60287;DHT22;46141;52.382;5.270;2023-05-10T04:46:57;19.50;82.00
60287;DHT22;46141;52.382;5.270;2023-05-10T04:49:23;19.50;81.90
60287;DHT22;46141;52.382;5.270;2023-05-10T04:51:48;19.50;81.90
60287;DHT22;46141;52.382;5.270;2023-05-10T04:54:14;19.50;81.90
60287;DHT22;46141;52.382;5.270;2023-05-10T04:56:40;19.50;81.90
60287;DHT22;46141;52.382;5.270;2023-05-10T04:59:06;19.40;81.90
60287;DHT22;46141;52.382;5.270;2023-05-10T05:01:32;19.40;81.90
60287;DHT22;46141;52.382;5.270;2023-05-10T05:03:58;19.40;81.90
60287;DHT22;46141;52.382;5.270;2023-05-10T05:06:24;19.40;81.90
60287;DHT22;46141;52.382;5.270;2023-05-10T05:08:50;19.40;81.80
60287;DHT22;46141;52.382;5.270;2023-05-10T05:11:17;19.40;81.80
60287;DHT22;46141;52.382;5.270;2023-05-10T05:13:43;19.40;81.70
60287;DHT22;46141;52.382;5.270;2023-05-10T05:16:09;19.40;81.70
60287;DHT22;46141;52.382;5.270;2023-05-10T05:18:35;19.40;82.30
60287;DHT22;46141;52.382;5.270;2023-05-10T05:21:01;19.50;81.60
60287;DHT22;46141;52.382;5.270;2023-05-10T05:23:27;19.40;81.70
60287;DHT22;46141;52.382;5.270;2023-05-10T05:25:53;19.40;81.70
60287;DHT22;46141;52.382;5.270;2023-05-10T05:28:21;19.40;81.80
60287;DHT22;46141;52.382;5.270;2023-05-10T05:30:47;19.40;81.70
60287;DHT22;46141;52.382;5.270;2023-05-10T05:33:14;19.40;81.60
60287;DHT22;46141;52.382;5.270;2023-05-10T05:35:41;19.50;81.40
60287;DHT22;46141;52.382;5.270;2023-05-10T05:38:10;19.50;81.10
60287;DHT22;46141;52.382;5.270;2023-05-10T05:40:35;19.50;81.00
60287;DHT22;46141;52.382;5.270;2023-05-10T05:43:01;19.50;81.50
60287;DHT22;46141;52.382;5.270;2023-05-10T05:45:27;19.50;80.80
60287;DHT22;46141;52.382;5.270;2023-05-10T05:47:52;19.50;81.60
60287;DHT22;46141;52.382;5.270;2023-05-10T05:50:18;19.50;80.70
60287;DHT22;46141;52.382;5.270;2023-05-10T05:52:43;19.50;80.80
60287;DHT22;46141;52.382;5.270;2023-05-10T05:55:09;19.40;81.10
60287;DHT22;46141;52.382;5.270;2023-05-10T05:57:35;19.50;80.90
60287;DHT22;46141;52.382;5.270;2023-05-10T06:00:00;19.50;81.00
60287;DHT22;46141;52.382;5.270;2023-05-10T06:02:26;19.50;80.80
60287;DHT22;46141;52.382;5.270;2023-05-10T06:04:51;19.50;80.80
60287;DHT22;46141;52.382;5.270;2023-05-10T06:07:17;19.50;80.70
60287;DHT22;46141;52.382;5.270;2023-05-10T06:09:43;19.50;80.60
60287;DHT22;46141;52.382;5.270;2023-05-10T06:12:08;19.50;80.50
60287;DHT22;46141;52.382;5.270;2023-05-10T06:14:34;19.50;80.50
60287;DHT22;46141;52.382;5.270;2023-05-10T06:16:59;19.50;80.50
60287;DHT22;46141;52.382;5.270;2023-05-10T06:19:25;19.50;80.40
60287;DHT22;46141;52.382;5.270;2023-05-10T06:21:51;19.50;80.60
60287;DHT22;46141;52.382;5.270;2023-05-10T06:24:17;19.40;80.60
60287;DHT22;46141;52.382;5.270;2023-05-10T06:26:43;19.40;80.80
60287;DHT22;46141;52.382;5.270;2023-05-10T06:29:08;19.40;80.70
60287;DHT22;46141;52.382;5.270;2023-05-10T06:31:34;19.40;80.70
60287;DHT22;46141;52.382;5.270;2023-05-10T06:34:00;19.40;80.70
60287;DHT22;46141;52.382;5.270;2023-05-10T06:36:25;19.50;80.60
60287;DHT22;46141;52.382;5.270;2023-05-10T06:38:52;19.40;80.70
60287;DHT22;46141;52.382;5.270;2023-05-10T06:41:18;19.40;80.50
60287;DHT22;46141;52.382;5.270;2023-05-10T06:43:43;19.40;80.30
60287;DHT22;46141;52.382;5.270;2023-05-10T06:46:09;19.50;80.20
60287;DHT22;46141;52.382;5.270;2023-05-10T06:48:35;19.40;80.20
60287;DHT22;46141;52.382;5.270;2023-05-10T06:51:00;19.40;80.20
60287;DHT22;46141;52.382;5.270;2023-05-10T06:53:26;19.50;80.00
60287;DHT22;46141;52.382;5.270;2023-05-10T06:55:52;19.50;80.00
60287;DHT22;46141;52.382;5.270;2023-05-10T06:58:18;19.50;80.00
60287;DHT22;46141;52.382;5.270;2023-05-10T07:00:44;19.50;80.30
60287;DHT22;46141;52.382;5.270;2023-05-10T07:03:10;19.50;80.00
60287;DHT22;46141;52.382;5.270;2023-05-10T07:05:36;19.50;79.30
60287;DHT22;46141;52.382;5.270;2023-05-10T07:08:02;19.50;79.40
60287;DHT22;46141;52.382;5.270;2023-05-10T07:10:27;19.60;79.10
60287;DHT22;46141;52.382;5.270;2023-05-10T07:12:53;19.60;78.70
60287;DHT22;46141;52.382;5.270;2023-05-10T07:15:19;19.70;78.50
60287;DHT22;46141;52.382;5.270;2023-05-10T07:17:44;19.70;78.30
60287;DHT22;46141;52.382;5.270;2023-05-10T07:20:11;19.80;78.10
60287;DHT22;46141;52.382;5.270;2023-05-10T07:22:36;19.80;78.10
60287;DHT22;46141;52.382;5.270;2023-05-10T07:25:02;19.90;77.70
60287;DHT22;46141;52.382;5.270;2023-05-10T07:27:28;19.90;78.00
60287;DHT22;46141;52.382;5.270;2023-05-10T07:29:53;19.90;78.00
60287;DHT22;46141;52.382;5.270;2023-05-10T07:32:20;19.90;78.00
60287;DHT22;46141;52.382;5.270;2023-05-10T07:34:46;20.00;78.10
60287;DHT22;46141;52.382;5.270;2023-05-10T07:37:12;20.00;77.80
60287;DHT22;46141;52.382;5.270;2023-05-10T07:39:37;20.00;77.90
60287;DHT22;46141;52.382;5.270;2023-05-10T07:42:03;20.00;78.00
60287;DHT22;46141;52.382;5.270;2023-05-10T07:44:29;20.00;77.90
60287;DHT22;46141;52.382;5.270;2023-05-10T07:46:54;20.00;78.00
60287;DHT22;46141;52.382;5.270;2023-05-10T07:49:21;20.10;77.70
60287;DHT22;46141;52.382;5.270;2023-05-10T07:51:46;20.10;77.70
60287;DHT22;46141;52.382;5.270;2023-05-10T07:54:13;20.10;78.10
60287;DHT22;46141;52.382;5.270;2023-05-10T07:56:39;20.10;77.40
60287;DHT22;46141;52.382;5.270;2023-05-10T07:59:05;20.10;77.40
60287;DHT22;46141;52.382;5.270;2023-05-10T08:01:33;20.10;77.50
60287;DHT22;46141;52.382;5.270;2023-05-10T08:04:00;20.10;77.50
60287;DHT22;46141;52.382;5.270;2023-05-10T08:06:26;20.20;77.40
60287;DHT22;46141;52.382;5.270;2023-05-10T08:08:55;20.20;77.60
60287;DHT22;46141;52.382;5.270;2023-05-10T08:11:21;20.20;77.30
60287;DHT22;46141;52.382;5.270;2023-05-10T08:13:49;20.20;77.20
60287;DHT22;46141;52.382;5.270;2023-05-10T08:16:15;20.20;77.30
60287;DHT22;46141;52.382;5.270;2023-05-10T08:18:41;20.20;77.00
60287;DHT22;46141;52.382;5.270;2023-05-10T08:21:07;20.20;76.90
60287;DHT22;46141;52.382;5.270;2023-05-10T08:23:33;20.20;76.80
60287;DHT22;46141;52.382;5.270;2023-05-10T08:25:59;20.20;77.00
60287;DHT22;46141;52.382;5.270;2023-05-10T08:28:25;20.30;77.10
60287;DHT22;46141;52.382;5.270;2023-05-10T08:30:51;20.30;77.20
60287;DHT22;46141;52.382;5.270;2023-05-10T08:33:18;20.30;76.80
60287;DHT22;46141;52.382;5.270;2023-05-10T08:35:44;20.30;76.80
60287;DHT22;46141;52.382;5.270;2023-05-10T08:38:10;20.30;76.90
60287;DHT22;46141;52.382;5.270;2023-05-10T08:40:42;20.30;76.80
60287;DHT22;46141;52.382;5.270;2023-05-10T08:43:11;20.30;76.90
60287;DHT22;46141;52.382;5.270;2023-05-10T08:45:39;20.30;76.60
60287;DHT22;46141;52.382;5.270;2023-05-10T08:48:08;20.40;76.90
60287;DHT22;46141;52.382;5.270;2023-05-10T08:50:39;20.40;76.80
60287;DHT22;46141;52.382;5.270;2023-05-10T08:53:09;20.40;76.80
60287;DHT22;46141;52.382;5.270;2023-05-10T08:55:36;20.50;76.70
60287;DHT22;46141;52.382;5.270;2023-05-10T08:58:06;20.40;76.30
60287;DHT22;46141;52.382;5.270;2023-05-10T09:00:32;20.40;76.30
60287;DHT22;46141;52.382;5.270;2023-05-10T09:02:59;20.40;76.50
60287;DHT22;46141;52.382;5.270;2023-05-10T09:05:25;20.40;76.30
60287;DHT22;46141;52.382;5.270;2023-05-10T09:07:51;20.40;76.30
60287;DHT22;46141;52.382;5.270;2023-05-10T09:10:17;20.50;76.30
60287;DHT22;46141;52.382;5.270;2023-05-10T09:12:44;20.50;76.30
60287;DHT22;46141;52.382;5.270;2023-05-10T09:15:11;20.50;76.20
60287;DHT22;46141;52.382;5.270;2023-05-10T09:17:41;20.50;76.30
60287;DHT22;46141;52.382;5.270;2023-05-10T09:20:07;20.50;76.00
60287;DHT22;46141;52.382;5.270;2023-05-10T09:22:34;20.60;75.90
60287;DHT22;46141;52.382;5.270;2023-05-10T09:25:10;20.50;75.90
60287;DHT22;46141;52.382;5.270;2023-05-10T09:27:38;20.60;76.20
60287;DHT22;46141;52.382;5.270;2023-05-10T09:30:04;20.60;76.20
60287;DHT22;46141;52.382;5.270;2023-05-10T09:32:41;20.60;75.80
60287;DHT22;46141;52.382;5.270;2023-05-10T09:35:16;20.60;75.90
60287;DHT22;46141;52.382;5.270;2023-05-10T09:37:51;20.60;76.20
60287;DHT22;46141;52.382;5.270;2023-05-10T09:40:25;20.60;75.90
60287;DHT22;46141;52.382;5.270;2023-05-10T09:42:53;20.60;76.10
60287;DHT22;46141;52.382;5.270;2023-05-10T09:45:21;20.70;75.80
60287;DHT22;46141;52.382;5.270;2023-05-10T09:47:48;20.70;75.90
60287;DHT22;46141;52.382;5.270;2023-05-10T09:50:14;20.70;75.70
60287;DHT22;46141;52.382;5.270;2023-05-10T09:52:50;20.70;75.50
60287;DHT22;46141;52.382;5.270;2023-05-10T09:55:19;20.70;75.60
60287;DHT22;46141;52.382;5.270;2023-05-10T09:57:46;20.70;75.50
60287;DHT22;46141;52.382;5.270;2023-05-10T10:00:22;20.70;75.50
60287;DHT22;46141;52.382;5.270;2023-05-10T10:02:55;20.70;75.70
60287;DHT22;46141;52.382;5.270;2023-05-10T10:05:21;20.60;75.40
60287;DHT22;46141;52.382;5.270;2023-05-10T10:07:46;20.70;76.10
60287;DHT22;46141;52.382;5.270;2023-05-10T10:10:14;20.70;75.30
60287;DHT22;46141;52.382;5.270;2023-05-10T10:12:41;20.70;75.40
60287;DHT22;46141;52.382;5.270;2023-05-10T10:15:08;20.70;75.50
60287;DHT22;46141;52.382;5.270;2023-05-10T10:17:36;20.70;75.20
60287;DHT22;46141;52.382;5.270;2023-05-10T10:20:03;20.70;75.00
60287;DHT22;46141;52.382;5.270;2023-05-10T10:22:29;20.70;75.30
60287;DHT22;46141;52.382;5.270;2023-05-10T10:24:55;20.70;75.20
60287;DHT22;46141;52.382;5.270;2023-05-10T10:27:34;20.70;75.10
60287;DHT22;46141;52.382;5.270;2023-05-10T10:35:33;20.80;75.00
60287;DHT22;46141;52.382;5.270;2023-05-10T10:38:00;20.80;75.00
60287;DHT22;46141;52.382;5.270;2023-05-10T10:40:31;20.80;75.00
60287;DHT22;46141;52.382;5.270;2023-05-10T10:42:58;20.80;74.80
60287;DHT22;46141;52.382;5.270;2023-05-10T10:45:43;20.90;74.60
60287;DHT22;46141;52.382;5.270;2023-05-10T10:48:23;20.90;74.40
60287;DHT22;46141;52.382;5.270;2023-05-10T10:50:57;20.90;74.40
60287;DHT22;46141;52.382;5.270;2023-05-10T10:53:26;20.90;74.30
60287;DHT22;46141;52.382;5.270;2023-05-10T10:56:05;20.90;74.60
60287;DHT22;46141;52.382;5.270;2023-05-10T10:58:33;20.80;74.30
60287;DHT22;46141;52.382;5.270;2023-05-10T11:01:16;20.90;74.90
60287;DHT22;46141;52.382;5.270;2023-05-10T11:06:36;20.90;74.70
60287;DHT22;46141;52.382;5.270;2023-05-10T11:09:09;20.90;74.70
60287;DHT22;46141;52.382;5.270;2023-05-10T11:11:48;20.80;74.60
60287;DHT22;46141;52.382;5.270;2023-05-10T11:14:13;20.90;74.70
60287;DHT22;46141;52.382;5.270;2023-05-10T11:16:44;20.90;74.60
60287;DHT22;46141;52.382;5.270;2023-05-10T11:19:15;20.90;74.40
60287;DHT22;46141;52.382;5.270;2023-05-10T11:22:11;20.80;74.60
60287;DHT22;46141;52.382;5.270;2023-05-10T11:24:38;20.90;74.50
60287;DHT22;46141;52.382;5.270;2023-05-10T11:27:04;20.80;74.40
60287;DHT22;46141;52.382;5.270;2023-05-10T11:29:29;20.80;74.30
60287;DHT22;46141;52.382;5.270;2023-05-10T11:31:58;20.80;74.20
60287;DHT22;46141;52.382;5.270;2023-05-10T11:34:26;20.80;74.40
60287;DHT22;46141;52.382;5.270;2023-05-10T11:36:54;20.90;74.30
60287;DHT22;46141;52.382;5.270;2023-05-10T11:39:20;21.00;74.20
60287;DHT22;46141;52.382;5.270;2023-05-10T11:41:48;21.00;74.30
60287;DHT22;46141;52.382;5.270;2023-05-10T11:44:14;20.90;74.60
60287;DHT22;46141;52.382;5.270;2023-05-10T11:46:40;20.90;74.30
60287;DHT22;46141;52.382;5.270;2023-05-10T11:49:07;21.00;74.40
60287;DHT22;46141;52.382;5.270;2023-05-10T11:51:34;20.90;74.60
60287;DHT22;46141;52.382;5.270;2023-05-10T11:54:09;20.90;74.30
60287;DHT22;46141;52.382;5.270;2023-05-10T11:56:37;20.90;74.40
60287;DHT22;46141;52.382;5.270;2023-05-10T11:59:03;20.90;73.90
60287;DHT22;46141;52.382;5.270;2023-05-10T12:01:29;20.90;74.10
60287;DHT22;46141;52.382;5.270;2023-05-10T12:03:57;20.90;74.20
60287;DHT22;46141;52.382;5.270;2023-05-10T12:06:30;20.90;74.10
60287;DHT22;46141;52.382;5.270;2023-05-10T12:08:57;20.90;74.10
60287;DHT22;46141;52.382;5.270;2023-05-10T12:11:28;20.80;74.00
60287;DHT22;46141;52.382;5.270;2023-05-10T12:13:55;20.90;73.90
60287;DHT22;46141;52.382;5.270;2023-05-10T12:16:22;20.90;74.20
60287;DHT22;46141;52.382;5.270;2023-05-10T12:18:49;21.00;74.00
60287;DHT22;46141;52.382;5.270;2023-05-10T12:21:17;20.90;73.80
60287;DHT22;46141;52.382;5.270;2023-05-10T12:23:45;20.90;74.30
60287;DHT22;46141;52.382;5.270;2023-05-10T12:26:12;20.90;74.60
60287;DHT22;46141;52.382;5.270;2023-05-10T12:28:38;20.90;74.80
60287;DHT22;46141;52.382;5.270;2023-05-10T12:31:07;20.90;74.40
60287;DHT22;46141;52.382;5.270;2023-05-10T12:33:43;21.00;74.60
60287;DHT22;46141;52.382;5.270;2023-05-10T12:36:14;20.90;74.30
60287;DHT22;46141;52.382;5.270;2023-05-10T12:38:42;21.00;74.20
60287;DHT22;46141;52.382;5.270;2023-05-10T12:41:10;21.00;74.50
60287;DHT22;46141;52.382;5.270;2023-05-10T12:43:37;20.90;74.50
60287;DHT22;46141;52.382;5.270;2023-05-10T12:46:13;21.00;74.70
60287;DHT22;46141;52.382;5.270;2023-05-10T12:48:40;20.90;74.70
60287;DHT22;46141;52.382;5.270;2023-05-10T12:51:07;21.00;74.60
60287;DHT22;46141;52.382;5.270;2023-05-10T12:53:39;21.00;74.50
60287;DHT22;46141;52.382;5.270;2023-05-10T12:56:05;21.00;74.20
60287;DHT22;46141;52.382;5.270;2023-05-10T12:58:31;21.10;74.50
60287;DHT22;46141;52.382;5.270;2023-05-10T13:00:58;21.10;74.50
60287;DHT22;46141;52.382;5.270;2023-05-10T13:03:24;21.10;74.60
60287;DHT22;46141;52.382;5.270;2023-05-10T13:05:49;21.10;74.30
60287;DHT22;46141;52.382;5.270;2023-05-10T13:08:15;21.10;74.40
60287;DHT22;46141;52.382;5.270;2023-05-10T13:10:41;21.20;74.20
60287;DHT22;46141;52.382;5.270;2023-05-10T13:13:06;21.10;74.20
60287;DHT22;46141;52.382;5.270;2023-05-10T13:15:34;21.10;74.20
60287;DHT22;46141;52.382;5.270;2023-05-10T13:18:00;21.20;74.30
60287;DHT22;46141;52.382;5.270;2023-05-10T13:20:26;21.20;74.30
60287;DHT22;46141;52.382;5.270;2023-05-10T13:22:52;21.20;74.10
60287;DHT22;46141;52.382;5.270;2023-05-10T13:25:18;21.20;74.00
60287;DHT22;46141;52.382;5.270;2023-05-10T13:27:43;21.20;74.00
60287;DHT22;46141;52.382;5.270;2023-05-10T13:30:10;21.20;74.20
60287;DHT22;46141;52.382;5.270;2023-05-10T13:32:37;21.20;74.30
60287;DHT22;46141;52.382;5.270;2023-05-10T13:35:03;21.20;74.30
60287;DHT22;46141;52.382;5.270;2023-05-10T13:37:30;21.10;73.90
60287;DHT22;46141;52.382;5.270;2023-05-10T13:39:56;21.20;74.40
60287;DHT22;46141;52.382;5.270;2023-05-10T13:42:22;21.20;74.30
60287;DHT22;46141;52.382;5.270;2023-05-10T13:44:49;21.20;74.10
60287;DHT22;46141;52.382;5.270;2023-05-10T13:47:15;21.10;74.00
60287;DHT22;46141;52.382;5.270;2023-05-10T13:49:41;21.10;73.70
60287;DHT22;46141;52.382;5.270;2023-05-10T13:52:07;21.20;73.90
60287;DHT22;46141;52.382;5.270;2023-05-10T13:54:36;21.20;74.00
60287;DHT22;46141;52.382;5.270;2023-05-10T13:57:03;21.10;73.80
60287;DHT22;46141;52.382;5.270;2023-05-10T13:59:30;21.10;74.30
60287;DHT22;46141;52.382;5.270;2023-05-10T14:02:00;21.10;74.00
60287;DHT22;46141;52.382;5.270;2023-05-10T14:04:29;21.10;74.10
60287;DHT22;46141;52.382;5.270;2023-05-10T14:06:55;21.10;73.90
60287;DHT22;46141;52.382;5.270;2023-05-10T14:09:21;21.20;74.00
60287;DHT22;46141;52.382;5.270;2023-05-10T14:11:47;21.10;74.10
60287;DHT22;46141;52.382;5.270;2023-05-10T14:14:12;21.20;73.70
60287;DHT22;46141;52.382;5.270;2023-05-10T14:16:44;21.20;73.90
60287;DHT22;46141;52.382;5.270;2023-05-10T14:19:10;21.20;74.10
60287;DHT22;46141;52.382;5.270;2023-05-10T14:21:36;21.10;74.30
60287;DHT22;46141;52.382;5.270;2023-05-10T14:24:02;21.20;74.30
60287;DHT22;46141;52.382;5.270;2023-05-10T14:26:28;21.10;74.20
60287;DHT22;46141;52.382;5.270;2023-05-10T14:28:54;21.10;74.20
60287;DHT22;46141;52.382;5.270;2023-05-10T14:31:19;21.20;74.20
60287;DHT22;46141;52.382;5.270;2023-05-10T14:33:46;21.10;74.30
60287;DHT22;46141;52.382;5.270;2023-05-10T14:36:12;21.10;74.50
60287;DHT22;46141;52.382;5.270;2023-05-10T14:38:39;21.10;74.40
60287;DHT22;46141;52.382;5.270;2023-05-10T14:41:04;21.20;74.20
60287;DHT22;46141;52.382;5.270;2023-05-10T14:43:30;21.10;74.30
60287;DHT22;46141;52.382;5.270;2023-05-10T14:45:56;21.10;74.40
60287;DHT22;46141;52.382;5.270;2023-05-10T14:48:21;21.10;74.20
60287;DHT22;46141;52.382;5.270;2023-05-10T14:50:47;21.10;74.10
60287;DHT22;46141;52.382;5.270;2023-05-10T14:53:15;21.10;74.10
60287;DHT22;46141;52.382;5.270;2023-05-10T14:55:40;21.10;74.00
60287;DHT22;46141;52.382;5.270;2023-05-10T14:58:06;21.10;73.90
60287;DHT22;46141;52.382;5.270;2023-05-10T15:00:32;21.10;73.90
60287;DHT22;46141;52.382;5.270;2023-05-10T15:02:57;21.10;73.90
60287;DHT22;46141;52.382;5.270;2023-05-10T15:05:23;21.10;73.90
60287;DHT22;46141;52.382;5.270;2023-05-10T15:07:49;21.10;73.80
60287;DHT22;46141;52.382;5.270;2023-05-10T15:10:14;21.10;73.70
60287;DHT22;46141;52.382;5.270;2023-05-10T15:12:40;21.20;74.20
60287;DHT22;46141;52.382;5.270;2023-05-10T15:15:07;21.10;73.90
60287;DHT22;46141;52.382;5.270;2023-05-10T15:17:33;21.20;73.90
60287;DHT22;46141;52.382;5.270;2023-05-10T15:19:59;21.20;73.80
60287;DHT22;46141;52.382;5.270;2023-05-10T15:22:25;21.20;73.80
60287;DHT22;46141;52.382;5.270;2023-05-10T15:24:51;21.20;74.00
60287;DHT22;46141;52.382;5.270;2023-05-10T15:27:16;21.10;74.00
60287;DHT22;46141;52.382;5.270;2023-05-10T15:29:42;21.20;74.10
60287;DHT22;46141;52.382;5.270;2023-05-10T15:32:08;21.20;74.00
60287;DHT22;46141;52.382;5.270;2023-05-10T15:34:33;21.20;74.10
60287;DHT22;46141;52.382;5.270;2023-05-10T15:36:59;21.20;74.20
60287;DHT22;46141;52.382;5.270;2023-05-10T15:39:25;21.30;74.10
60287;DHT22;46141;52.382;5.270;2023-05-10T15:41:50;21.30;73.90
60287;DHT22;46141;52.382;5.270;2023-05-10T15:44:16;21.50;73.70
60287;DHT22;46141;52.382;5.270;2023-05-10T15:46:42;21.50;73.60
60287;DHT22;46141;52.382;5.270;2023-05-10T15:49:08;21.50;73.70
60287;DHT22;46141;52.382;5.270;2023-05-10T15:51:33;21.60;73.60